sensor_id;sensor_type;location;lat;lon;timestamp;temperature;humidity
12843;DHT22;35724;49.324;-123.118;2023-05-15T00:06:03;26.70;57.30
12843;DHT22;35724;49.324;-123.118;2023-05-15T00:16:09;26.80;56.70
12843;DHT22;35724;49.324;-123.118;2023-05-15T00:26:18;26.80;56.50
12843;DHT22;35724;49.324;-123.118;2023-05-15T00:36:25;26.90;56.60
12843;DHT22;35724;49.324;-123.118;2023-05-15T00:46:35;27.00;56.60
12843;DHT22;35724;49.324;-123.118;2023-05-15T00:56:43;27.00;55.50
12843;DHT22;35724;49.324;-123.118;2023-05-15T01:06:54;27.00;55.30
12843;DHT22;35724;49.324;-123.118;2023-05-15T01:17:02;26.90;55.10
12843;DHT22;35724;49.324;-123.118;2023-05-15T01:27:19;27.00;55.00
12843;DHT22;35724;49.324;-123.118;2023-05-15T01:37:29;27.00;54.60
12843;DHT22;35724;49.324;-123.118;2023-05-15T01:47:42;27.00;54.80
12843;DHT22;35724;49.324;-123.118;2023-05-15T01:57:50;27.00;54.60
12843;DHT22;35724;49.324;-123.118;2023-05-15T02:08:02;26.90;55.20
12843;DHT22;35724;49.324;-123.118;2023-05-15T02:18:09;27.00;55.00
12843;DHT22;35724;49.324;-123.118;2023-05-15T02:28:27;27.10;54.70
12843;DHT22;35724;49.324;-123.118;2023-05-15T02:38:38;27.10;53.90
12843;DHT22;35724;49.324;-123.118;2023-05-15T02:59:38;26.90;53.90
12843;DHT22;35724;49.324;-123.118;2023-05-15T03:09:55;26.80;54.00
12843;DHT22;35724;49.324;-123.118;2023-05-15T03:20:16;26.70;53.60
12843;DHT22;35724;49.324;-123.118;2023-05-15T03:30:23;26.60;53.90
12843;DHT22;35724;49.324;-123.118;2023-05-15T03:40:36;26.70;53.60
12843;DHT22;35724;49.324;-123.118;2023-05-15T03:51:10;26.80;53.80
12843;DHT22;35724;49.324;-123.118;2023-05-15T04:01:54;26.80;54.00
12843;DHT22;35724;49.324;-123.118;2023-05-15T04:13:08;26.80;54.00
12843;DHT22;35724;49.324;-123.118;2023-05-15T04:23:26;26.80;54.30
12843;DHT22;35724;49.324;-123.118;2023-05-15T04:33:37;26.80;54.20
12843;DHT22;35724;49.324;-123.118;2023-05-15T04:43:45;26.80;53.80
12843;DHT22;35724;49.324;-123.118;2023-05-15T04:53:53;26.90;53.70
12843;DHT22;35724;49.324;-123.118;2023-05-15T05:04:04;27.00;54.00
12843;DHT22;35724;49.324;-123.118;2023-05-15T05:14:13;27.10;53.90
12843;DHT22;35724;49.324;-123.118;2023-05-15T05:24:21;27.10;53.60
12843;DHT22;35724;49.324;-123.118;2023-05-15T05:34:28;27.10;53.50
12843;DHT22;35724;49.324;-123.118;2023-05-15T05:44:36;27.10;52.60
12843;DHT22;35724;49.324;-123.118;2023-05-15T05:54:44;27.10;52.00
12843;DHT22;35724;49.324;-123.118;2023-05-15T06:04:53;27.00;51.90
12843;DHT22;35724;49.324;-123.118;2023-05-15T06:15:00;27.00;51.90
12843;DHT22;35724;49.324;-123.118;2023-05-15T06:25:09;27.00;51.50
12843;DHT22;35724;49.324;-123.118;2023-05-15T06:35:17;27.00;51.20
12843;DHT22;35724;49.324;-123.118;2023-05-15T06:45:28;26.90;50.50
12843;DHT22;35724;49.324;-123.118;2023-05-15T06:55:35;26.80;50.70
12843;DHT22;35724;49.324;-123.118;2023-05-15T07:05:44;26.80;50.60
12843;DHT22;35724;49.324;-123.118;2023-05-15T07:15:51;26.70;50.20
12843;DHT22;35724;49.324;-123.118;2023-05-15T07:26:02;26.80;50.30
12843;DHT22;35724;49.324;-123.118;2023-05-15T07:36:14;26.70;50.10
12843;DHT22;35724;49.324;-123.118;2023-05-15T07:46:23;26.70;50.00
12843;DHT22;35724;49.324;-123.118;2023-05-15T07:56:31;26.60;49.90
12843;DHT22;35724;49.324;-123.118;2023-05-15T08:06:39;26.60;49.90
12843;DHT22;35724;49.324;-123.118;2023-05-15T08:16:49;26.50;49.70
12843;DHT22;35724;49.324;-123.118;2023-05-15T08:27:08;26.50;49.80
12843;DHT22;35724;49.324;-123.118;2023-05-15T08:37:17;26.50;49.60
12843;DHT22;35724;49.324;-123.118;2023-05-15T08:47:39;26.50;49.70
12843;DHT22;35724;49.324;-123.118;2023-05-15T08:57:48;26.50;49.60
12843;DHT22;35724;49.324;-123.118;2023-05-15T09:08:03;26.40;49.50
12843;DHT22;35724;49.324;-123.118;2023-05-15T09:18:19;26.40;49.40
12843;DHT22;35724;49.324;-123.118;2023-05-15T09:28:30;26.30;49.30
12843;DHT22;35724;49.324;-123.118;2023-05-15T09:38:44;26.30;49.20
12843;DHT22;35724;49.324;-123.118;2023-05-15T09:48:55;26.30;49.20
12843;DHT22;35724;49.324;-123.118;2023-05-15T09:59:08;26.30;49.10
12843;DHT22;35724;49.324;-123.118;2023-05-15T10:09:19;26.30;49.10
12843;DHT22;35724;49.324;-123.118;2023-05-15T10:19:28;26.20;49.00
12843;DHT22;35724;49.324;-123.118;2023-05-15T10:30:06;26.20;49.00
12843;DHT22;35724;49.324;-123.118;2023-05-15T10:40:15;26.20;49.00
12843;DHT22;35724;49.324;-123.118;2023-05-15T10:50:25;26.20;49.00
12843;DHT22;35724;49.324;-123.118;2023-05-15T11:00:33;26.20;49.00
12843;DHT22;35724;49.324;-123.118;2023-05-15T11:10:48;26.20;48.80
12843;DHT22;35724;49.324;-123.118;2023-05-15T11:21:13;26.10;48.80
12843;DHT22;35724;49.324;-123.118;2023-05-15T11:31:29;26.10;48.70
12843;DHT22;35724;49.324;-123.118;2023-05-15T11:41:44;26.10;48.70
12843;DHT22;35724;49.324;-123.118;2023-05-15T11:51:53;26.10;48.70
12843;DHT22;35724;49.324;-123.118;2023-05-15T12:02:03;26.10;48.90
12843;DHT22;35724;49.324;-123.118;2023-05-15T12:12:14;26.00;48.90
12843;DHT22;35724;49.324;-123.118;2023-05-15T12:22:21;26.10;49.10
12843;DHT22;35724;49.324;-123.118;2023-05-15T12:32:31;26.10;49.10
12843;DHT22;35724;49.324;-123.118;2023-05-15T12:42:40;26.00;49.00
12843;DHT22;35724;49.324;-123.118;2023-05-15T12:52:50;26.00;49.00
12843;DHT22;35724;49.324;-123.118;2023-05-15T13:02:58;26.00;48.90
12843;DHT22;35724;49.324;-123.118;2023-05-15T13:13:07;26.00;48.80
12843;DHT22;35724;49.324;-123.118;2023-05-15T13:23:14;26.00;48.80
12843;DHT22;35724;49.324;-123.118;2023-05-15T13:33:23;25.90;48.80
12843;DHT22;35724;49.324;-123.118;2023-05-15T13:43:30;26.00;49.00
12843;DHT22;35724;49.324;-123.118;2023-05-15T13:53:38;26.00;49.00
12843;DHT22;35724;49.324;-123.118;2023-05-15T14:03:46;25.90;49.10
12843;DHT22;35724;49.324;-123.118;2023-05-15T14:13:55;26.00;49.10
12843;DHT22;35724;49.324;-123.118;2023-05-15T14:24:23;26.00;49.20
12843;DHT22;35724;49.324;-123.118;2023-05-15T14:35:03;26.00;51.20
12843;DHT22;35724;49.324;-123.118;2023-05-15T14:45:43;26.00;51.10
12843;DHT22;35724;49.324;-123.118;2023-05-15T15:08:02;26.10;51.40
12843;DHT22;35724;49.324;-123.118;2023-05-15T15:18:09;26.40;52.10
12843;DHT22;35724;49.324;-123.118;2023-05-15T15:28:18;26.40;52.10
12843;DHT22;35724;49.324;-123.118;2023-05-15T15:38:25;26.40;51.40
12843;DHT22;35724;49.324;-123.118;2023-05-15T15:48:33;26.40;50.90
12843;DHT22;35724;49.324;-123.118;2023-05-15T15:58:40;26.30;50.40
12843;DHT22;35724;49.324;-123.118;2023-05-15T16:08:49;26.30;50.20
12843;DHT22;35724;49.324;-123.118;2023-05-15T16:18:56;26.30;50.00
12843;DHT22;35724;49.324;-123.118;2023-05-15T16:29:05;26.30;49.90
12843;DHT22;35724;49.324;-123.118;2023-05-15T16:39:12;26.40;50.20
12843;DHT22;35724;49.324;-123.118;2023-05-15T16:49:21;26.50;50.10
12843;DHT22;35724;49.324;-123.118;2023-05-15T16:59:28;26.40;49.90
12843;DHT22;35724;49.324;-123.118;2023-05-15T17:09:37;26.40;49.70
12843;DHT22;35724;49.324;-123.118;2023-05-15T17:19:46;26.40;49.60
12843;DHT22;35724;49.324;-123.118;2023-05-15T17:29:55;26.40;51.60
12843;DHT22;35724;49.324;-123.118;2023-05-15T17:40:02;26.40;50.40
12843;DHT22;35724;49.324;-123.118;2023-05-15T17:50:11;26.40;49.50
12843;DHT22;35724;49.324;-123.118;2023-05-15T18:00:19;26.30;48.10
12843;DHT22;35724;49.324;-123.118;2023-05-15T18:10:28;26.30;47.50
12843;DHT22;35724;49.324;-123.118;2023-05-15T18:20:35;26.20;47.60
12843;DHT22;35724;49.324;-123.118;2023-05-15T18:30:44;26.20;48.90
12843;DHT22;35724;49.324;-123.118;2023-05-15T18:40:51;26.20;48.30
12843;DHT22;35724;49.324;-123.118;2023-05-15T18:51:21;26.10;49.00
12843;DHT22;35724;49.324;-123.118;2023-05-15T19:14:03;26.10;53.30
12843;DHT22;35724;49.324;-123.118;2023-05-15T19:24:16;26.00;54.00
12843;DHT22;35724;49.324;-123.118;2023-05-15T19:34:29;26.10;54.20
12843;DHT22;35724;49.324;-123.118;2023-05-15T19:44:36;26.10;53.20
12843;DHT22;35724;49.324;-123.118;2023-05-15T19:54:44;26.10;52.50
12843;DHT22;35724;49.324;-123.118;2023-05-15T20:04:51;26.10;53.50
12843;DHT22;35724;49.324;-123.118;2023-05-15T20:15:00;26.10;54.30
12843;DHT22;35724;49.324;-123.118;2023-05-15T20:25:07;26.10;54.30
12843;DHT22;35724;49.324;-123.118;2023-05-15T20:35:16;26.10;53.60
12843;DHT22;35724;49.324;-123.118;2023-05-15T20:45:23;26.20;52.50
12843;DHT22;35724;49.324;-123.118;2023-05-15T20:55:32;26.20;51.60
12843;DHT22;35724;49.324;-123.118;2023-05-15T21:05:39;26.20;52.50
12843;DHT22;35724;49.324;-123.118;2023-05-15T21:15:48;26.20;53.40
12843;DHT22;35724;49.324;-123.118;2023-05-15T21:25:54;26.20;52.70
12843;DHT22;35724;49.324;-123.118;2023-05-15T21:36:03;26.30;52.00
12843;DHT22;35724;49.324;-123.118;2023-05-15T21:46:10;26.30;52.30
12843;DHT22;35724;49.324;-123.118;2023-05-15T21:56:18;26.30;51.80
12843;DHT22;35724;49.324;-123.118;2023-05-15T22:06:25;26.40;50.70
12843;DHT22;35724;49.324;-123.118;2023-05-15T22:16:34;26.40;52.20
12843;DHT22;35724;49.324;-123.118;2023-05-15T22:26:41;26.40;52.60
12843;DHT22;35724;49.324;-123.118;2023-05-15T22:36:50;26.50;52.40
12843;DHT22;35724;49.324;-123.118;2023-05-15T22:47:01;26.50;53.00
12843;DHT22;35724;49.324;-123.118;2023-05-15T22:57:11;26.50;54.40
12843;DHT22;35724;49.324;-123.118;2023-05-15T23:07:18;26.50;53.50
12843;DHT22;35724;49.324;-123.118;2023-05-15T23:17:27;26.50;50.90
12843;DHT22;35724;49.324;-123.118;2023-05-15T23:27:34;26.60;49.60
12843;DHT22;35724;49.324;-123.118;2023-05-15T23:37:42;26.60;49.10
12843;DHT22;35724;49.324;-123.118;2023-05-15T23:47:49;26.70;48.60
12843;DHT22;35724;49.324;-123.118;2023-05-15T23:57:58;26.70;48.90
